createdAt,value
2023-02-08T00:00:52.495Z,-7.29
2023-02-08T00:03:20.360Z,-7.37
2023-02-08T00:05:48.417Z,-7.45
2023-02-08T00:08:16.880Z,-7.51
2023-02-08T00:10:44.740Z,-7.57
2023-02-08T00:13:12.652Z,-7.61
2023-02-08T00:15:44.806Z,-7.65
2023-02-08T00:18:14.408Z,-7.65
2023-02-08T00:20:42.724Z,-7.63
2023-02-08T00:23:12.079Z,-7.60
2023-02-08T00:25:40.684Z,-7.57
2023-02-08T00:28:11.670Z,-7.52
2023-02-08T00:30:39.853Z,-7.47
2023-02-08T00:33:09.121Z,-7.42
2023-02-08T00:35:38.082Z,-7.38
2023-02-08T00:38:05.941Z,-7.34
2023-02-08T00:40:34.200Z,-7.31
2023-02-08T00:43:02.829Z,-7.32
2023-02-08T00:45:32.573Z,-7.32
2023-02-08T00:48:00.471Z,-7.36
2023-02-08T00:50:28.471Z,-7.40
2023-02-08T00:52:59.419Z,-7.47
2023-02-08T00:55:27.370Z,-7.54
2023-02-08T00:57:55.313Z,-7.63
2023-02-08T01:00:23.786Z,-7.71
2023-02-08T01:02:52.058Z,-7.79
2023-02-08T01:05:20.166Z,-7.89
2023-02-08T01:07:48.336Z,-7.99
2023-02-08T01:10:16.347Z,-8.06
2023-02-08T01:12:46.715Z,-8.12
2023-02-08T01:15:14.991Z,-8.18
2023-02-08T01:17:46.306Z,-8.21
2023-02-08T01:20:14.179Z,-8.22
2023-02-08T01:22:42.144Z,-8.21
2023-02-08T01:25:11.276Z,-8.20
2023-02-08T01:27:39.888Z,-8.17
2023-02-08T01:30:08.649Z,-8.14
2023-02-08T01:32:37.011Z,-8.09
2023-02-08T01:35:06.103Z,-8.04
2023-02-08T01:37:34.747Z,-7.99
2023-02-08T01:40:04.319Z,-7.93
2023-02-08T01:42:32.399Z,-7.86
2023-02-08T01:45:23.577Z,-7.81
2023-02-08T01:48:09.616Z,-7.77
2023-02-08T01:50:52.048Z,-7.77
2023-02-08T01:53:20.166Z,-7.79
2023-02-08T01:55:49.835Z,-7.83
2023-02-08T01:58:17.993Z,-7.88
2023-02-08T02:00:46.455Z,-7.95
2023-02-08T02:03:14.853Z,-8.02
2023-02-08T02:05:50.242Z,-8.11
2023-02-08T02:08:18.488Z,-8.20
2023-02-08T02:10:49.341Z,-8.29
2023-02-08T02:13:22.211Z,-8.38
2023-02-08T02:15:50.343Z,-8.45
2023-02-08T02:18:26.524Z,-8.54
2023-02-08T02:21:08.150Z,-8.60
2023-02-08T02:23:48.418Z,-8.63
2023-02-08T02:26:44.413Z,-8.64
2023-02-08T02:29:40.120Z,-8.62
2023-02-08T02:32:26.417Z,-8.58
2023-02-08T02:35:12.772Z,-8.52
2023-02-08T02:37:49.598Z,-8.47
2023-02-08T02:40:23.621Z,-8.42
2023-02-08T02:43:35.081Z,-8.36
2023-02-08T02:46:07.806Z,-8.30
2023-02-08T02:49:01.083Z,-8.25
2023-02-08T02:51:52.149Z,-8.19
2023-02-08T02:54:23.474Z,-8.14
2023-02-08T02:56:53.902Z,-8.12
2023-02-08T02:59:21.675Z,-8.11
2023-02-08T03:01:49.693Z,-8.11
2023-02-08T03:04:32.927Z,-8.14
2023-02-08T03:07:19.713Z,-8.20
2023-02-08T03:10:16.046Z,-8.28
2023-02-08T03:13:18.056Z,-8.37
2023-02-08T03:16:00.758Z,-8.48
2023-02-08T03:19:00.070Z,-8.60
2023-02-08T03:21:51.357Z,-8.71
2023-02-08T03:24:45.589Z,-8.80
2023-02-08T03:27:40.785Z,-8.89
2023-02-08T03:30:32.049Z,-8.95
2023-02-08T03:33:03.194Z,-8.98
2023-02-08T03:35:38.750Z,-8.98
2023-02-08T03:38:11.566Z,-8.97
2023-02-08T03:40:42.681Z,-8.96
2023-02-08T03:43:23.903Z,-8.92
2023-02-08T03:45:55.552Z,-8.88
2023-02-08T03:48:23.438Z,-8.83
2023-02-08T03:50:52.466Z,-8.79
2023-02-08T03:53:22.061Z,-8.75
2023-02-08T03:55:51.955Z,-8.71
2023-02-08T03:58:23.381Z,-8.67
2023-02-08T04:01:14.096Z,-8.63
2023-02-08T04:03:42.336Z,-8.59
2023-02-08T04:06:10.340Z,-8.54
2023-02-08T04:08:38.225Z,-8.51
2023-02-08T04:11:09.054Z,-8.48
2023-02-08T04:13:37.996Z,-8.45
2023-02-08T04:16:06.296Z,-8.44
2023-02-08T04:18:34.859Z,-8.43
2023-02-08T04:21:04.010Z,-8.43
2023-02-08T04:23:32.739Z,-8.45
2023-02-08T04:26:00.627Z,-8.49
2023-02-08T04:28:28.638Z,-8.55
2023-02-08T04:30:57.210Z,-8.63
2023-02-08T04:33:25.642Z,-8.72
2023-02-08T04:35:53.970Z,-8.82
2023-02-08T04:38:21.831Z,-8.94
2023-02-08T04:40:49.901Z,-9.04
2023-02-08T04:43:17.970Z,-9.13
2023-02-08T04:45:45.824Z,-9.23
2023-02-08T04:48:13.820Z,-9.30
2023-02-08T04:50:42.373Z,-9.37
2023-02-08T04:53:10.763Z,-9.40
2023-02-08T04:55:38.805Z,-9.41
2023-02-08T04:58:09.076Z,-9.40
2023-02-08T05:00:37.830Z,-9.39
2023-02-08T05:03:06.373Z,-9.36
2023-02-08T05:05:34.406Z,-9.33
2023-02-08T05:08:02.851Z,-9.29
2023-02-08T05:10:30.862Z,-9.26
2023-02-08T05:12:59.028Z,-9.21
2023-02-08T05:15:27.042Z,-9.17
2023-02-08T05:17:54.986Z,-9.13
2023-02-08T05:20:22.812Z,-9.10
2023-02-08T05:22:50.972Z,-9.06
2023-02-08T05:25:18.905Z,-9.03
2023-02-08T05:27:46.915Z,-9.00
2023-02-08T05:30:14.786Z,-8.96
2023-02-08T05:32:42.763Z,-8.93
2023-02-08T05:35:10.617Z,-8.91
2023-02-08T05:37:38.677Z,-8.88
2023-02-08T05:40:07.128Z,-8.86
2023-02-08T05:42:36.047Z,-8.83
2023-02-08T05:45:04.747Z,-8.79
2023-02-08T05:47:33.436Z,-8.77
2023-02-08T05:50:01.327Z,-8.76
2023-02-08T05:52:29.772Z,-8.74
2023-02-08T05:54:59.102Z,-8.72
2023-02-08T05:57:28.346Z,-8.70
2023-02-08T05:59:57.527Z,-8.69
2023-02-08T06:02:25.676Z,-8.68
2023-02-08T06:04:53.524Z,-8.68
2023-02-08T06:07:21.730Z,-8.67
2023-02-08T06:09:50.512Z,-8.66
2023-02-08T06:12:19.067Z,-8.65
2023-02-08T06:14:49.198Z,-8.62
2023-02-08T06:17:17.071Z,-8.60
2023-02-08T06:19:45.202Z,-8.57
2023-02-08T06:22:13.255Z,-8.53
2023-02-08T06:24:41.349Z,-8.50
2023-02-08T06:27:09.585Z,-8.47
2023-02-08T06:29:37.484Z,-8.45
2023-02-08T06:32:05.713Z,-8.45
2023-02-08T06:34:33.765Z,-8.45
2023-02-08T06:37:02.381Z,-8.46
2023-02-08T06:39:30.340Z,-8.46
2023-02-08T06:41:58.432Z,-8.48
2023-02-08T06:44:26.485Z,-8.48
2023-02-08T06:46:54.487Z,-8.50
2023-02-08T06:49:22.536Z,-8.50
2023-02-08T06:51:50.963Z,-8.48
2023-02-08T06:54:19.137Z,-8.44
2023-02-08T06:56:47.000Z,-8.38
2023-02-08T06:59:14.895Z,-8.29
2023-02-08T07:01:42.791Z,-8.16
2023-02-08T07:04:10.816Z,-8.01
2023-02-08T07:06:39.349Z,-7.83
2023-02-08T07:09:07.359Z,-7.66
2023-02-08T07:11:36.179Z,-7.45
2023-02-08T07:14:10.544Z,-7.25
2023-02-08T07:16:44.546Z,-7.02
2023-02-08T07:19:13.020Z,-6.82
2023-02-08T07:21:42.136Z,-6.63
2023-02-08T07:24:10.553Z,-6.46
2023-02-08T07:26:38.462Z,-6.31
2023-02-08T07:29:06.851Z,-6.16
2023-02-08T07:31:42.556Z,-6.04
2023-02-08T07:34:14.281Z,-5.92
2023-02-08T07:36:53.098Z,-5.80
2023-02-08T07:39:21.654Z,-5.70
2023-02-08T07:41:49.787Z,-5.61
2023-02-08T07:44:17.849Z,-5.52
2023-02-08T07:46:45.712Z,-5.45
2023-02-08T07:49:13.626Z,-5.36
2023-02-08T07:51:41.432Z,-5.28
2023-02-08T07:54:09.717Z,-5.21
2023-02-08T07:56:37.821Z,-5.13
2023-02-08T07:59:06.167Z,-5.06
2023-02-08T08:01:36.547Z,-4.97
2023-02-08T08:04:04.778Z,-4.88
2023-02-08T08:06:33.160Z,-4.77
2023-02-08T08:09:01.715Z,-4.64
2023-02-08T08:11:29.994Z,-4.49
2023-02-08T08:13:58.770Z,-4.32
2023-02-08T08:16:26.891Z,-4.14
2023-02-08T08:18:54.825Z,-3.96
2023-02-08T08:21:22.741Z,-3.78
2023-02-08T08:23:50.822Z,-3.61
2023-02-08T08:26:20.085Z,-3.47
2023-02-08T08:28:52.409Z,-3.32
2023-02-08T08:31:21.569Z,-3.18
2023-02-08T08:33:49.649Z,-3.07
2023-02-08T08:36:18.454Z,-2.95
2023-02-08T08:38:46.611Z,-2.82
2023-02-08T08:41:17.929Z,-2.70
2023-02-08T08:43:46.116Z,-2.56
2023-02-08T08:46:15.206Z,-2.41
2023-02-08T08:48:43.534Z,-2.24
2023-02-08T08:51:11.563Z,-2.07
2023-02-08T08:53:39.971Z,-1.89
2023-02-08T08:56:08.125Z,-1.73
2023-02-08T08:58:36.475Z,-1.59
2023-02-08T09:01:04.590Z,-1.45
2023-02-08T09:03:32.836Z,-1.34
2023-02-08T09:06:01.606Z,-1.24
2023-02-08T09:08:29.760Z,-1.16
2023-02-08T09:11:03.574Z,-1.08
2023-02-08T09:13:32.404Z,-1.02
2023-02-08T09:16:09.104Z,-0.96
2023-02-08T09:18:37.063Z,-0.90
2023-02-08T09:21:06.823Z,-0.86
2023-02-08T09:23:34.770Z,-0.81
2023-02-08T09:26:08.861Z,-0.74
2023-02-08T09:28:38.092Z,-0.67
2023-02-08T09:31:09.255Z,-0.59
2023-02-08T09:33:37.485Z,-0.52
2023-02-08T09:36:06.030Z,-0.44
2023-02-08T09:38:34.840Z,-0.35
2023-02-08T09:41:42.852Z,-0.27
2023-02-08T09:44:29.427Z,-0.20
2023-02-08T09:47:02.128Z,-0.15
2023-02-08T09:49:33.001Z,-0.10
2023-02-08T09:52:03.083Z,-0.05
2023-02-08T09:54:39.900Z,-0.02
2023-02-08T09:57:14.319Z,0.02
2023-02-08T09:59:51.477Z,0.05
2023-02-08T10:02:26.511Z,0.08
2023-02-08T10:05:05.959Z,0.12
2023-02-08T10:07:34.237Z,0.16
2023-02-08T10:10:05.367Z,0.20
2023-02-08T10:12:45.572Z,0.26
2023-02-08T10:15:24.602Z,0.32
2023-02-08T10:18:19.054Z,0.39
2023-02-08T10:21:14.084Z,0.45
2023-02-08T10:24:08.571Z,0.48
2023-02-08T10:26:38.772Z,0.52
2023-02-08T10:29:45.909Z,0.55
2023-02-08T10:32:39.092Z,0.57
2023-02-08T10:35:12.312Z,0.57
2023-02-08T10:37:41.853Z,0.57
2023-02-08T10:40:18.935Z,0.56
2023-02-08T10:43:01.014Z,0.57
2023-02-08T10:45:32.634Z,0.56
2023-02-08T10:48:03.259Z,0.56
2023-02-08T10:50:36.301Z,0.56
2023-02-08T10:53:04.852Z,0.55
2023-02-08T10:55:36.196Z,0.54
2023-02-08T10:58:13.556Z,0.53
2023-02-08T11:00:41.725Z,0.52
2023-02-08T11:03:19.169Z,0.52
2023-02-08T11:05:47.404Z,0.51
2023-02-08T11:08:19.982Z,0.50
2023-02-08T11:10:57.493Z,0.49
2023-02-08T11:13:31.888Z,0.48
2023-02-08T11:16:00.957Z,0.47
2023-02-08T11:18:33.180Z,0.46
2023-02-08T11:21:10.623Z,0.45
2023-02-08T11:23:42.594Z,0.43
2023-02-08T11:26:33.814Z,0.40
2023-02-08T11:29:03.286Z,0.39
2023-02-08T11:31:32.429Z,0.37
2023-02-08T11:34:05.258Z,0.35
2023-02-08T11:36:34.476Z,0.33
2023-02-08T11:39:14.815Z,0.30
2023-02-08T11:41:46.713Z,0.28
2023-02-08T11:44:20.834Z,0.24
2023-02-08T11:46:49.018Z,0.22
2023-02-08T11:49:39.575Z,0.20
2023-02-08T11:52:20.093Z,0.16
2023-02-08T11:54:48.326Z,0.12
2023-02-08T11:57:19.288Z,0.09
2023-02-08T11:59:47.997Z,0.05
2023-02-08T12:02:36.487Z,0.02
2023-02-08T12:05:10.110Z,-0.02
2023-02-08T12:07:56.979Z,-0.06
2023-02-08T12:10:58.594Z,-0.11
2023-02-08T12:13:47.607Z,-0.15
2023-02-08T12:16:37.466Z,-0.20
2023-02-08T12:19:24.215Z,-0.26
2023-02-08T12:22:14.051Z,-0.31
2023-02-08T12:24:48.222Z,-0.35
2023-02-08T12:27:46.598Z,-0.40
2023-02-08T12:30:21.714Z,-0.45
2023-02-08T12:33:29.463Z,-0.50
2023-02-08T12:36:04.645Z,-0.55
2023-02-08T12:39:47.544Z,-0.59
2023-02-08T12:42:50.423Z,-0.67
2023-02-08T12:45:27.974Z,-0.73
2023-02-08T12:48:05.514Z,-0.78
2023-02-08T12:50:48.557Z,-0.81
2023-02-08T12:53:37.977Z,-0.86
2023-02-08T12:56:08.342Z,-0.91
2023-02-08T12:59:01.964Z,-0.96
2023-02-08T13:01:44.122Z,-1.02
2023-02-08T13:04:17.380Z,-1.07
2023-02-08T13:06:52.010Z,-1.12
2023-02-08T13:09:22.700Z,-1.16
2023-02-08T13:12:00.145Z,-1.20
2023-02-08T13:14:35.810Z,-1.24
2023-02-08T13:17:24.050Z,-1.29
2023-02-08T13:20:07.134Z,-1.33
2023-02-08T13:22:37.346Z,-1.37
2023-02-08T13:25:08.511Z,-1.42
2023-02-08T13:27:37.786Z,-1.45
2023-02-08T13:30:06.298Z,-1.49
2023-02-08T13:32:44.054Z,-1.54
2023-02-08T13:35:14.494Z,-1.57
2023-02-08T13:37:42.594Z,-1.58
2023-02-08T13:40:16.908Z,-1.60
2023-02-08T13:42:51.358Z,-1.60
2023-02-08T13:45:34.378Z,-1.59
2023-02-08T13:48:04.053Z,-1.57
2023-02-08T13:50:35.245Z,-1.54
2023-02-08T13:53:04.502Z,-1.53
2023-02-08T13:55:33.692Z,-1.53
2023-02-08T13:58:16.632Z,-1.54
2023-02-08T14:00:53.768Z,-1.56
2023-02-08T14:03:23.748Z,-1.58
2023-02-08T14:06:20.741Z,-1.61
2023-02-08T14:08:55.238Z,-1.68
2023-02-08T14:11:52.207Z,-1.72
2023-02-08T14:14:21.210Z,-1.79
2023-02-08T14:17:04.770Z,-1.85
2023-02-08T14:19:37.231Z,-1.91
2023-02-08T14:22:07.086Z,-1.97
2023-02-08T14:25:01.557Z,-2.03
2023-02-08T14:27:39.928Z,-2.10
2023-02-08T14:30:17.740Z,-2.16
2023-02-08T14:33:08.156Z,-2.23
2023-02-08T14:35:37.731Z,-2.29
2023-02-08T14:38:23.718Z,-2.36
2023-02-08T14:40:57.193Z,-2.42
2023-02-08T14:43:35.634Z,-2.49
2023-02-08T14:46:37.885Z,-2.56
2023-02-08T14:49:16.927Z,-2.64
2023-02-08T14:51:57.073Z,-2.71
2023-02-08T14:54:32.736Z,-2.79
2023-02-08T14:57:02.619Z,-2.86
2023-02-08T14:59:32.029Z,-2.92
2023-02-08T15:02:01.645Z,-2.99
2023-02-08T15:04:29.908Z,-3.06
2023-02-08T15:07:16.795Z,-3.14
2023-02-08T15:09:44.959Z,-3.21
2023-02-08T15:12:32.536Z,-3.26
2023-02-08T15:15:02.563Z,-3.32
2023-02-08T15:17:41.006Z,-3.36
2023-02-08T15:20:17.961Z,-3.39
2023-02-08T15:22:46.750Z,-3.39
2023-02-08T15:25:31.888Z,-3.39
2023-02-08T15:28:20.882Z,-3.38
2023-02-08T15:31:00.158Z,-3.38
2023-02-08T15:33:28.243Z,-3.39
2023-02-08T15:36:01.392Z,-3.42
2023-02-08T15:38:29.824Z,-3.46
2023-02-08T15:41:11.016Z,-3.51
2023-02-08T15:43:39.703Z,-3.57
2023-02-08T15:46:25.935Z,-3.64
2023-02-08T15:48:54.197Z,-3.72
2023-02-08T15:51:24.266Z,-3.79
2023-02-08T15:53:53.446Z,-3.88
2023-02-08T15:56:35.817Z,-3.95
2023-02-08T15:59:04.835Z,-4.05
2023-02-08T16:01:34.523Z,-4.13
2023-02-08T16:04:06.154Z,-4.22
2023-02-08T16:06:39.389Z,-4.31
2023-02-08T16:09:07.518Z,-4.39
2023-02-08T16:11:35.681Z,-4.47
2023-02-08T16:14:09.001Z,-4.55
2023-02-08T16:16:48.433Z,-4.64
2023-02-08T16:19:27.463Z,-4.73
2023-02-08T16:22:16.987Z,-4.79
2023-02-08T16:24:47.693Z,-4.84
2023-02-08T16:27:29.346Z,-4.88
2023-02-08T16:29:57.300Z,-4.89
2023-02-08T16:32:29.701Z,-4.89
2023-02-08T16:34:59.349Z,-4.87
2023-02-08T16:37:33.648Z,-4.87
2023-02-08T16:40:07.078Z,-4.87
2023-02-08T16:42:36.950Z,-4.89
2023-02-08T16:45:08.020Z,-4.94
2023-02-08T16:47:36.907Z,-4.99
2023-02-08T16:50:06.005Z,-5.07
2023-02-08T16:52:34.301Z,-5.14
2023-02-08T16:55:04.726Z,-5.22
2023-02-08T16:57:46.666Z,-5.31
2023-02-08T17:00:26.066Z,-5.42
2023-02-08T17:02:54.299Z,-5.53
2023-02-08T17:05:23.673Z,-5.63
2023-02-08T17:07:51.822Z,-5.74
2023-02-08T17:10:29.063Z,-5.84
2023-02-08T17:13:13.392Z,-5.95
2023-02-08T17:15:47.096Z,-6.07
2023-02-08T17:18:15.267Z,-6.18
2023-02-08T17:20:44.556Z,-6.28
2023-02-08T17:23:12.963Z,-6.37
2023-02-08T17:25:41.286Z,-6.44
2023-02-08T17:28:14.789Z,-6.50
2023-02-08T17:30:43.156Z,-6.53
2023-02-08T17:33:19.912Z,-6.55
2023-02-08T17:35:49.729Z,-6.55
2023-02-08T17:38:18.674Z,-6.55
2023-02-08T17:40:46.769Z,-6.55
2023-02-08T17:43:14.985Z,-6.56
2023-02-08T17:45:43.753Z,-6.59
2023-02-08T17:48:13.547Z,-6.64
2023-02-08T17:50:43.577Z,-6.69
2023-02-08T17:53:11.877Z,-6.75
2023-02-08T17:55:42.819Z,-6.82
2023-02-08T17:58:11.716Z,-6.89
2023-02-08T18:00:39.823Z,-6.98
2023-02-08T18:03:07.830Z,-7.06
2023-02-08T18:05:37.644Z,-7.15
2023-02-08T18:08:06.744Z,-7.25
2023-02-08T18:10:36.440Z,-7.33
2023-02-08T18:13:04.498Z,-7.40
2023-02-08T18:15:32.336Z,-7.46
2023-02-08T18:18:00.476Z,-7.50
2023-02-08T18:20:28.664Z,-7.54
2023-02-08T18:22:56.507Z,-7.54
2023-02-08T18:25:24.570Z,-7.54
2023-02-08T18:27:52.679Z,-7.52
2023-02-08T18:30:20.867Z,-7.49
2023-02-08T18:32:49.133Z,-7.45
2023-02-08T18:35:17.253Z,-7.42
2023-02-08T18:37:46.514Z,-7.39
2023-02-08T18:40:14.548Z,-7.37
2023-02-08T18:42:43.971Z,-7.36
2023-02-08T18:45:11.965Z,-7.36
2023-02-08T18:47:40.288Z,-7.38
2023-02-08T18:50:09.310Z,-7.42
2023-02-08T18:52:38.010Z,-7.47
2023-02-08T18:55:06.311Z,-7.55
2023-02-08T18:57:38.852Z,-7.63
2023-02-08T19:00:07.559Z,-7.72
2023-02-08T19:02:39.348Z,-7.81
2023-02-08T19:05:07.809Z,-7.91
2023-02-08T19:07:35.997Z,-8.01
2023-02-08T19:10:04.482Z,-8.10
2023-02-08T19:12:32.579Z,-8.16
2023-02-08T19:15:00.452Z,-8.23
2023-02-08T19:17:28.291Z,-8.27
2023-02-08T19:19:57.461Z,-8.30
2023-02-08T19:22:25.598Z,-8.30
2023-02-08T19:24:54.278Z,-8.30
2023-02-08T19:27:23.020Z,-8.27
2023-02-08T19:29:56.124Z,-8.24
2023-02-08T19:32:24.254Z,-8.21
2023-02-08T19:34:52.323Z,-8.16
2023-02-08T19:37:20.385Z,-8.12
2023-02-08T19:39:48.455Z,-8.09
2023-02-08T19:42:16.461Z,-8.05
2023-02-08T19:44:45.013Z,-8.01
2023-02-08T19:47:13.190Z,-7.97
2023-02-08T19:49:41.069Z,-7.94
2023-02-08T19:52:08.972Z,-7.93
2023-02-08T19:54:37.946Z,-7.95
2023-02-08T19:57:06.034Z,-7.99
2023-02-08T19:59:35.365Z,-8.05
2023-02-08T20:02:03.700Z,-8.13
2023-02-08T20:04:32.800Z,-8.22
2023-02-08T20:07:00.776Z,-8.33
2023-02-08T20:09:29.637Z,-8.43
2023-02-08T20:11:59.554Z,-8.54
2023-02-08T20:14:32.956Z,-8.62
2023-02-08T20:17:01.740Z,-8.70
2023-02-08T20:19:29.880Z,-8.76
2023-02-08T20:21:57.732Z,-8.82
2023-02-08T20:24:25.722Z,-8.85
2023-02-08T20:26:53.720Z,-8.84
2023-02-08T20:29:22.691Z,-8.82
2023-02-08T20:31:55.523Z,-8.77
2023-02-08T20:34:23.928Z,-8.72
2023-02-08T20:37:06.408Z,-8.68
2023-02-08T20:39:36.279Z,-8.64
2023-02-08T20:42:04.903Z,-8.61
2023-02-08T20:44:33.031Z,-8.57
2023-02-08T20:47:01.832Z,-8.53
2023-02-08T20:49:32.097Z,-8.48
2023-02-08T20:52:00.240Z,-8.44
2023-02-08T20:54:28.261Z,-8.41
2023-02-08T20:56:56.367Z,-8.39
2023-02-08T20:59:24.498Z,-8.38
2023-02-08T21:01:52.713Z,-8.38
2023-02-08T21:04:23.411Z,-8.40
2023-02-08T21:06:52.038Z,-8.43
2023-02-08T21:09:20.280Z,-8.48
2023-02-08T21:11:49.028Z,-8.56
2023-02-08T21:14:21.381Z,-8.63
2023-02-08T21:16:56.347Z,-8.72
2023-02-08T21:19:26.040Z,-8.81
2023-02-08T21:21:58.269Z,-8.91
2023-02-08T21:24:26.335Z,-9.01
2023-02-08T21:26:54.931Z,-9.07
2023-02-08T21:29:23.329Z,-9.15
2023-02-08T21:31:54.171Z,-9.21
2023-02-08T21:34:23.026Z,-9.24
2023-02-08T21:36:51.079Z,-9.27
2023-02-08T21:39:20.316Z,-9.26
2023-02-08T21:41:49.106Z,-9.23
2023-02-08T21:44:17.563Z,-9.19
2023-02-08T21:46:45.561Z,-9.14
2023-02-08T21:49:32.470Z,-9.09
2023-02-08T21:52:18.894Z,-9.03
2023-02-08T21:54:46.842Z,-8.97
2023-02-08T21:57:19.021Z,-8.92
2023-02-08T21:59:48.615Z,-8.89
2023-02-08T22:02:26.058Z,-8.88
2023-02-08T22:04:55.371Z,-8.88
2023-02-08T22:07:23.823Z,-8.88
2023-02-08T22:09:52.621Z,-8.88
2023-02-08T22:12:22.025Z,-8.87
2023-02-08T22:14:51.097Z,-8.80
2023-02-08T22:17:19.146Z,-8.78
2023-02-08T22:19:47.731Z,-8.77
2023-02-08T22:22:15.964Z,-8.75
2023-02-08T22:24:43.874Z,-8.74
2023-02-08T22:27:12.189Z,-8.75
2023-02-08T22:29:40.176Z,-8.75
2023-02-08T22:32:09.940Z,-8.76
2023-02-08T22:34:38.345Z,-8.76
2023-02-08T22:37:06.424Z,-8.76
2023-02-08T22:39:35.721Z,-8.77
2023-02-08T22:42:08.334Z,-8.77
2023-02-08T22:44:36.242Z,-8.77
2023-02-08T22:47:06.506Z,-8.78
2023-02-08T22:49:34.883Z,-8.80
2023-02-08T22:52:03.079Z,-8.80
2023-02-08T22:54:31.328Z,-8.81
2023-02-08T22:56:59.138Z,-8.81
2023-02-08T22:59:27.088Z,-8.84
2023-02-08T23:01:55.284Z,-8.85
2023-02-08T23:04:23.373Z,-8.86
2023-02-08T23:06:51.518Z,-8.87
2023-02-08T23:09:19.419Z,-8.87
2023-02-08T23:11:47.866Z,-8.88
2023-02-08T23:14:16.889Z,-8.89
2023-02-08T23:16:45.441Z,-8.88
2023-02-08T23:19:17.250Z,-8.88
2023-02-08T23:21:45.412Z,-8.87
2023-02-08T23:24:13.437Z,-8.87
2023-02-08T23:26:41.722Z,-8.86
2023-02-08T23:29:09.986Z,-8.87
2023-02-08T23:31:40.725Z,-8.89
2023-02-08T23:34:11.360Z,-8.92
2023-02-08T23:36:40.186Z,-8.93
2023-02-08T23:39:08.158Z,-8.94
2023-02-08T23:41:37.468Z,-8.96
2023-02-08T23:44:05.537Z,-8.96
2023-02-08T23:46:34.304Z,-8.96
2023-02-08T23:49:02.476Z,-8.96
2023-02-08T23:51:30.836Z,-8.96
2023-02-08T23:53:58.770Z,-8.97
2023-02-08T23:56:27.931Z,-8.98
2023-02-08T23:58:57.462Z,-9.01
